<?xml version="1.0" encoding="UTF-8"?>
<gpx creator="Wikiloc - https://www.wikiloc.com" version="1.1" xmlns="http://www.topografix.com/GPX/1/1" xmlns:xsi="http://www.w3.org/2001/XMLSchema-instance" xsi:schemaLocation="http://www.topografix.com/GPX/1/1 http://www.topografix.com/GPX/1/1/gpx.xsd">
  <metadata>
    <name>Wikiloc - Circular El Guincho, Playa La Consolación, Finca Malpaís, Pu...</name>
    <link href="https://www.wikiloc.com/hiking-trails/circular-el-guincho-110530085">
      <text>Circular El Guincho, Playa La Consolación, Finca Malpaís, Pu... on Wikiloc</text>
    </link>
    <time>2022-08-13T17:00:59Z</time>
  </metadata>
  <trk>
    <name>Circular El Guincho, Playa La Consolación, Finca Malpaís, Pu...</name>
    <cmt></cmt>
    <desc></desc>
    <trkseg>
      <trkpt lat="28.373332" lon="-16.745428">
        <ele>69.843</ele>
        <time>2022-08-13T13:50:12Z</time>
      </trkpt>
      <trkpt lat="28.373065" lon="-16.746126">
        <ele>56.864</ele>
        <time>2022-08-13T13:51:27Z</time>
      </trkpt>
      <trkpt lat="28.373562" lon="-16.745079">
        <ele>68.810</ele>
        <time>2022-08-13T13:53:46Z</time>
      </trkpt>
      <trkpt lat="28.373374" lon="-16.743458">
        <ele>53.809</ele>
        <time>2022-08-13T13:56:00Z</time>
      </trkpt>
      <trkpt lat="28.373929" lon="-16.743388">
        <ele>51.895</ele>
        <time>2022-08-13T13:56:57Z</time>
      </trkpt>
      <trkpt lat="28.374364" lon="-16.743140">
        <ele>40.825</ele>
        <time>2022-08-13T13:58:01Z</time>
      </trkpt>
      <trkpt lat="28.375128" lon="-16.743551">
        <ele>29.814</ele>
        <time>2022-08-13T13:59:43Z</time>
      </trkpt>
      <trkpt lat="28.375729" lon="-16.743050">
        <ele>17.889</ele>
        <time>2022-08-13T14:03:20Z</time>
      </trkpt>
      <trkpt lat="28.375883" lon="-16.742491">
        <ele>-4.247</ele>
        <time>2022-08-13T14:07:29Z</time>
      </trkpt>
      <trkpt lat="28.376168" lon="-16.742879">
        <ele>-2.294</ele>
        <time>2022-08-13T14:08:59Z</time>
      </trkpt>
      <trkpt lat="28.376442" lon="-16.742810">
        <ele>3.874</ele>
        <time>2022-08-13T14:10:10Z</time>
      </trkpt>
      <trkpt lat="28.376342" lon="-16.741751">
        <ele>6.872</ele>
        <time>2022-08-13T14:13:31Z</time>
      </trkpt>
      <trkpt lat="28.375993" lon="-16.740872">
        <ele>18.899</ele>
        <time>2022-08-13T14:15:22Z</time>
      </trkpt>
      <trkpt lat="28.376196" lon="-16.740318">
        <ele>25.838</ele>
        <time>2022-08-13T14:16:16Z</time>
      </trkpt>
      <trkpt lat="28.377747" lon="-16.740551">
        <ele>28.870</ele>
        <time>2022-08-13T14:20:48Z</time>
      </trkpt>
      <trkpt lat="28.378030" lon="-16.740198">
        <ele>19.817</ele>
        <time>2022-08-13T14:22:48Z</time>
      </trkpt>
      <trkpt lat="28.377213" lon="-16.739370">
        <ele>16.809</ele>
        <time>2022-08-13T14:24:47Z</time>
      </trkpt>
      <trkpt lat="28.377039" lon="-16.738430">
        <ele>2.834</ele>
        <time>2022-08-13T14:26:18Z</time>
      </trkpt>
      <trkpt lat="28.377662" lon="-16.739440">
        <ele>4.844</ele>
        <time>2022-08-13T14:29:13Z</time>
      </trkpt>
      <trkpt lat="28.377990" lon="-16.739613">
        <ele>1.893</ele>
        <time>2022-08-13T14:30:21Z</time>
      </trkpt>
      <trkpt lat="28.378089" lon="-16.739899">
        <ele>-7.298</ele>
        <time>2022-08-13T14:30:59Z</time>
      </trkpt>
      <trkpt lat="28.378319" lon="-16.740042">
        <ele>-1.346</ele>
        <time>2022-08-13T14:31:40Z</time>
      </trkpt>
      <trkpt lat="28.378333" lon="-16.740230">
        <ele>-4.243</ele>
        <time>2022-08-13T14:33:42Z</time>
      </trkpt>
      <trkpt lat="28.378468" lon="-16.740265">
        <ele>-0.263</ele>
        <time>2022-08-13T14:35:25Z</time>
      </trkpt>
      <trkpt lat="28.378321" lon="-16.739900">
        <ele>2.861</ele>
        <time>2022-08-13T14:37:26Z</time>
      </trkpt>
      <trkpt lat="28.379022" lon="-16.739905">
        <ele>4.888</ele>
        <time>2022-08-13T14:38:58Z</time>
      </trkpt>
      <trkpt lat="28.379233" lon="-16.739425">
        <ele>3.848</ele>
        <time>2022-08-13T14:39:53Z</time>
      </trkpt>
      <trkpt lat="28.379450" lon="-16.739814">
        <ele>1.861</ele>
        <time>2022-08-13T14:40:40Z</time>
      </trkpt>
      <trkpt lat="28.379382" lon="-16.740077">
        <ele>-3.217</ele>
        <time>2022-08-13T14:41:13Z</time>
      </trkpt>
      <trkpt lat="28.379612" lon="-16.741116">
        <ele>0.809</ele>
        <time>2022-08-13T14:45:58Z</time>
      </trkpt>
      <trkpt lat="28.379331" lon="-16.741166">
        <ele>-3.295</ele>
        <time>2022-08-13T14:51:05Z</time>
      </trkpt>
      <trkpt lat="28.379612" lon="-16.740825">
        <ele>1.875</ele>
        <time>2022-08-13T14:56:07Z</time>
      </trkpt>
      <trkpt lat="28.379456" lon="-16.740489">
        <ele>0.834</ele>
        <time>2022-08-13T14:57:16Z</time>
      </trkpt>
      <trkpt lat="28.379478" lon="-16.739886">
        <ele>2.859</ele>
        <time>2022-08-13T14:58:33Z</time>
      </trkpt>
      <trkpt lat="28.379184" lon="-16.739314">
        <ele>-1.327</ele>
        <time>2022-08-13T15:01:15Z</time>
      </trkpt>
      <trkpt lat="28.379204" lon="-16.738922">
        <ele>-2.214</ele>
        <time>2022-08-13T15:01:55Z</time>
      </trkpt>
      <trkpt lat="28.379718" lon="-16.738073">
        <ele>-2.264</ele>
        <time>2022-08-13T15:03:27Z</time>
      </trkpt>
      <trkpt lat="28.379935" lon="-16.738115">
        <ele>1.812</ele>
        <time>2022-08-13T15:03:53Z</time>
      </trkpt>
      <trkpt lat="28.379964" lon="-16.738395">
        <ele>5.889</ele>
        <time>2022-08-13T15:04:35Z</time>
      </trkpt>
      <trkpt lat="28.380031" lon="-16.738292">
        <ele>5.815</ele>
        <time>2022-08-13T15:05:41Z</time>
      </trkpt>
      <trkpt lat="28.379929" lon="-16.738524">
        <ele>9.865</ele>
        <time>2022-08-13T15:07:50Z</time>
      </trkpt>
      <trkpt lat="28.380035" lon="-16.738704">
        <ele>1.811</ele>
        <time>2022-08-13T15:12:27Z</time>
      </trkpt>
      <trkpt lat="28.379833" lon="-16.738492">
        <ele>7.809</ele>
        <time>2022-08-13T15:16:53Z</time>
      </trkpt>
      <trkpt lat="28.379924" lon="-16.738111">
        <ele>9.812</ele>
        <time>2022-08-13T15:17:57Z</time>
      </trkpt>
      <trkpt lat="28.379702" lon="-16.737904">
        <ele>8.862</ele>
        <time>2022-08-13T15:18:27Z</time>
      </trkpt>
      <trkpt lat="28.377722" lon="-16.737580">
        <ele>8.811</ele>
        <time>2022-08-13T15:22:44Z</time>
      </trkpt>
      <trkpt lat="28.377754" lon="-16.736810">
        <ele>7.886</ele>
        <time>2022-08-13T15:24:04Z</time>
      </trkpt>
      <trkpt lat="28.378739" lon="-16.736863">
        <ele>1.894</ele>
        <time>2022-08-13T15:25:49Z</time>
      </trkpt>
      <trkpt lat="28.379008" lon="-16.736163">
        <ele>0.851</ele>
        <time>2022-08-13T15:26:57Z</time>
      </trkpt>
      <trkpt lat="28.379458" lon="-16.736248">
        <ele>-7.261</ele>
        <time>2022-08-13T15:27:44Z</time>
      </trkpt>
      <trkpt lat="28.379631" lon="-16.736152">
        <ele>6.879</ele>
        <time>2022-08-13T15:28:54Z</time>
      </trkpt>
      <trkpt lat="28.379593" lon="-16.736042">
        <ele>8.856</ele>
        <time>2022-08-13T15:31:28Z</time>
      </trkpt>
      <trkpt lat="28.379505" lon="-16.736201">
        <ele>12.886</ele>
        <time>2022-08-13T15:33:08Z</time>
      </trkpt>
      <trkpt lat="28.379027" lon="-16.736192">
        <ele>9.860</ele>
        <time>2022-08-13T15:33:54Z</time>
      </trkpt>
      <trkpt lat="28.379051" lon="-16.735498">
        <ele>1.826</ele>
        <time>2022-08-13T15:34:49Z</time>
      </trkpt>
      <trkpt lat="28.380225" lon="-16.735099">
        <ele>-1.309</ele>
        <time>2022-08-13T15:37:06Z</time>
      </trkpt>
      <trkpt lat="28.381585" lon="-16.733637">
        <ele>-14.239</ele>
        <time>2022-08-13T15:40:09Z</time>
      </trkpt>
      <trkpt lat="28.381768" lon="-16.733185">
        <ele>-6.249</ele>
        <time>2022-08-13T15:40:51Z</time>
      </trkpt>
      <trkpt lat="28.381697" lon="-16.732600">
        <ele>1.888</ele>
        <time>2022-08-13T15:42:15Z</time>
      </trkpt>
      <trkpt lat="28.380928" lon="-16.732037">
        <ele>2.853</ele>
        <time>2022-08-13T15:47:15Z</time>
      </trkpt>
      <trkpt lat="28.380438" lon="-16.732247">
        <ele>5.831</ele>
        <time>2022-08-13T15:48:10Z</time>
      </trkpt>
      <trkpt lat="28.380396" lon="-16.732148">
        <ele>4.878</ele>
        <time>2022-08-13T15:49:20Z</time>
      </trkpt>
      <trkpt lat="28.380389" lon="-16.732431">
        <ele>11.848</ele>
        <time>2022-08-13T15:52:26Z</time>
      </trkpt>
      <trkpt lat="28.379453" lon="-16.732359">
        <ele>16.856</ele>
        <time>2022-08-13T15:56:10Z</time>
      </trkpt>
      <trkpt lat="28.379190" lon="-16.732138">
        <ele>14.833</ele>
        <time>2022-08-13T15:58:45Z</time>
      </trkpt>
      <trkpt lat="28.378811" lon="-16.732344">
        <ele>18.886</ele>
        <time>2022-08-13T16:01:34Z</time>
      </trkpt>
      <trkpt lat="28.378331" lon="-16.731685">
        <ele>5.860</ele>
        <time>2022-08-13T16:04:12Z</time>
      </trkpt>
      <trkpt lat="28.378108" lon="-16.731592">
        <ele>6.826</ele>
        <time>2022-08-13T16:05:36Z</time>
      </trkpt>
      <trkpt lat="28.378190" lon="-16.731320">
        <ele>2.809</ele>
        <time>2022-08-13T16:06:09Z</time>
      </trkpt>
      <trkpt lat="28.378061" lon="-16.731529">
        <ele>7.899</ele>
        <time>2022-08-13T16:07:48Z</time>
      </trkpt>
      <trkpt lat="28.377953" lon="-16.731415">
        <ele>8.889</ele>
        <time>2022-08-13T16:08:07Z</time>
      </trkpt>
      <trkpt lat="28.378356" lon="-16.730805">
        <ele>-10.388</ele>
        <time>2022-08-13T16:09:27Z</time>
      </trkpt>
      <trkpt lat="28.378244" lon="-16.731090">
        <ele>2.873</ele>
        <time>2022-08-13T16:16:02Z</time>
      </trkpt>
      <trkpt lat="28.377779" lon="-16.731381">
        <ele>7.881</ele>
        <time>2022-08-13T16:17:02Z</time>
      </trkpt>
      <trkpt lat="28.377541" lon="-16.731213">
        <ele>1.858</ele>
        <time>2022-08-13T16:17:32Z</time>
      </trkpt>
      <trkpt lat="28.377552" lon="-16.731025">
        <ele>-5.258</ele>
        <time>2022-08-13T16:19:51Z</time>
      </trkpt>
      <trkpt lat="28.377626" lon="-16.731445">
        <ele>-5.266</ele>
        <time>2022-08-13T16:21:27Z</time>
      </trkpt>
      <trkpt lat="28.377521" lon="-16.731626">
        <ele>-6.223</ele>
        <time>2022-08-13T16:21:48Z</time>
      </trkpt>
      <trkpt lat="28.376756" lon="-16.731111">
        <ele>-12.321</ele>
        <time>2022-08-13T16:23:51Z</time>
      </trkpt>
      <trkpt lat="28.376283" lon="-16.731382">
        <ele>-13.241</ele>
        <time>2022-08-13T16:25:04Z</time>
      </trkpt>
      <trkpt lat="28.376125" lon="-16.732360">
        <ele>1.805</ele>
        <time>2022-08-13T16:27:33Z</time>
      </trkpt>
      <trkpt lat="28.375851" lon="-16.732943">
        <ele>1.809</ele>
        <time>2022-08-13T16:28:34Z</time>
      </trkpt>
      <trkpt lat="28.375305" lon="-16.733611">
        <ele>8.823</ele>
        <time>2022-08-13T16:29:47Z</time>
      </trkpt>
      <trkpt lat="28.374256" lon="-16.736015">
        <ele>5.873</ele>
        <time>2022-08-13T16:34:54Z</time>
      </trkpt>
      <trkpt lat="28.373896" lon="-16.736380">
        <ele>-9.362</ele>
        <time>2022-08-13T16:35:53Z</time>
      </trkpt>
      <trkpt lat="28.373606" lon="-16.736441">
        <ele>3.867</ele>
        <time>2022-08-13T16:36:46Z</time>
      </trkpt>
      <trkpt lat="28.373103" lon="-16.736087">
        <ele>23.865</ele>
        <time>2022-08-13T16:40:22Z</time>
      </trkpt>
      <trkpt lat="28.374153" lon="-16.737403">
        <ele>40.882</ele>
        <time>2022-08-13T16:43:13Z</time>
      </trkpt>
      <trkpt lat="28.374167" lon="-16.737624">
        <ele>41.832</ele>
        <time>2022-08-13T16:44:03Z</time>
      </trkpt>
      <trkpt lat="28.373871" lon="-16.737866">
        <ele>41.880</ele>
        <time>2022-08-13T16:44:37Z</time>
      </trkpt>
      <trkpt lat="28.373832" lon="-16.738252">
        <ele>38.867</ele>
        <time>2022-08-13T16:45:38Z</time>
      </trkpt>
      <trkpt lat="28.373935" lon="-16.738671">
        <ele>33.833</ele>
        <time>2022-08-13T16:46:18Z</time>
      </trkpt>
      <trkpt lat="28.374371" lon="-16.739048">
        <ele>39.823</ele>
        <time>2022-08-13T16:47:08Z</time>
      </trkpt>
      <trkpt lat="28.374591" lon="-16.739603">
        <ele>44.815</ele>
        <time>2022-08-13T16:48:38Z</time>
      </trkpt>
      <trkpt lat="28.374587" lon="-16.739931">
        <ele>46.809</ele>
        <time>2022-08-13T16:49:43Z</time>
      </trkpt>
      <trkpt lat="28.374312" lon="-16.740473">
        <ele>51.884</ele>
        <time>2022-08-13T16:50:56Z</time>
      </trkpt>
      <trkpt lat="28.374063" lon="-16.740675">
        <ele>51.884</ele>
        <time>2022-08-13T16:51:40Z</time>
      </trkpt>
      <trkpt lat="28.373381" lon="-16.740784">
        <ele>59.823</ele>
        <time>2022-08-13T16:52:46Z</time>
      </trkpt>
      <trkpt lat="28.373063" lon="-16.741149">
        <ele>59.848</ele>
        <time>2022-08-13T16:53:33Z</time>
      </trkpt>
      <trkpt lat="28.373683" lon="-16.741930">
        <ele>64.876</ele>
        <time>2022-08-13T16:55:06Z</time>
      </trkpt>
      <trkpt lat="28.373227" lon="-16.743366">
        <ele>58.843</ele>
        <time>2022-08-13T16:56:54Z</time>
      </trkpt>
      <trkpt lat="28.373538" lon="-16.744901">
        <ele>66.863</ele>
        <time>2022-08-13T17:00:08Z</time>
      </trkpt>
      <trkpt lat="28.373353" lon="-16.745467">
        <ele>67.831</ele>
        <time>2022-08-13T17:00:59Z</time>
      </trkpt>
    </trkseg>
  </trk></gpx>